createdAt,value
2023-12-21T00:00:16.415Z,74.66
2023-12-21T00:02:43.310Z,74.62
2023-12-21T00:05:10.846Z,74.93
2023-12-21T00:07:37.942Z,74.75
2023-12-21T00:10:05.470Z,74.80
2023-12-21T00:12:32.849Z,74.85
2023-12-21T00:14:59.720Z,74.79
2023-12-21T00:17:26.622Z,74.90
2023-12-21T00:19:57.244Z,74.93
2023-12-21T00:22:24.799Z,74.90
2023-12-21T00:24:51.726Z,74.82
2023-12-21T00:27:18.790Z,75.11
2023-12-21T00:29:45.647Z,75.06
2023-12-21T00:32:13.787Z,75.23
2023-12-21T00:34:40.899Z,75.11
2023-12-21T00:37:07.835Z,74.98
2023-12-21T00:39:34.773Z,74.98
2023-12-21T00:42:01.640Z,75.12
2023-12-21T00:44:28.487Z,75.07
2023-12-21T00:46:55.376Z,75.09
2023-12-21T00:49:22.401Z,75.07
2023-12-21T00:51:49.539Z,75.03
2023-12-21T00:54:16.426Z,75.16
2023-12-21T00:56:43.527Z,75.07
2023-12-21T00:59:10.458Z,75.40
2023-12-21T01:01:38.007Z,75.30
2023-12-21T01:04:05.678Z,75.27
2023-12-21T01:06:32.590Z,75.45
2023-12-21T01:08:59.469Z,75.19
2023-12-21T01:11:26.760Z,75.57
2023-12-21T01:13:53.565Z,75.63
2023-12-21T01:16:20.435Z,75.54
2023-12-21T01:18:47.989Z,75.61
2023-12-21T01:21:14.992Z,75.50
2023-12-21T01:23:42.946Z,75.47
2023-12-21T01:26:09.775Z,75.29
2023-12-21T01:28:36.733Z,75.64
2023-12-21T01:31:04.094Z,75.47
2023-12-21T01:33:31.130Z,75.43
2023-12-21T01:35:58.225Z,75.51
2023-12-21T01:38:25.212Z,75.57
2023-12-21T01:40:52.396Z,75.62
2023-12-21T01:43:19.428Z,75.68
2023-12-21T01:45:46.648Z,75.74
2023-12-21T01:48:13.784Z,75.71
2023-12-21T01:50:44.168Z,75.94
2023-12-21T01:53:13.147Z,75.86
2023-12-21T01:55:40.601Z,75.69
2023-12-21T01:58:07.670Z,75.83
2023-12-21T02:00:34.715Z,76.06
2023-12-21T02:03:02.599Z,76.05
2023-12-21T02:05:29.474Z,76.04
2023-12-21T02:07:56.387Z,75.76
2023-12-21T02:10:23.254Z,76.12
2023-12-21T02:12:50.416Z,76.12
2023-12-21T02:15:17.414Z,75.75
2023-12-21T02:17:48.059Z,75.60
2023-12-21T02:20:16.217Z,75.60
2023-12-21T02:22:46.032Z,75.70
2023-12-21T02:25:13.730Z,75.55
2023-12-21T02:27:40.743Z,75.76
2023-12-21T02:30:08.287Z,75.51
2023-12-21T02:32:35.312Z,75.63
2023-12-21T02:35:03.996Z,75.29
2023-12-21T02:37:32.358Z,75.60
2023-12-21T02:39:59.294Z,75.54
2023-12-21T02:42:26.349Z,75.56
2023-12-21T02:44:53.292Z,75.62
2023-12-21T02:47:20.185Z,75.46
2023-12-21T02:49:47.786Z,75.58
2023-12-21T02:52:15.561Z,75.31
2023-12-21T02:54:42.425Z,75.28
2023-12-21T02:57:09.290Z,75.32
2023-12-21T02:59:36.194Z,75.16
2023-12-21T03:02:03.170Z,75.07
2023-12-21T03:04:30.003Z,75.18
2023-12-21T03:06:57.119Z,75.09
2023-12-21T03:09:24.024Z,74.92
2023-12-21T03:11:50.901Z,74.93
2023-12-21T03:14:17.811Z,74.89
2023-12-21T03:16:44.717Z,74.89
2023-12-21T03:19:11.850Z,74.59
2023-12-21T03:21:38.756Z,74.59
2023-12-21T03:24:06.052Z,74.45
2023-12-21T03:26:33.302Z,74.38
2023-12-21T03:29:00.171Z,74.30
2023-12-21T03:31:27.393Z,74.19
2023-12-21T03:33:54.414Z,74.16
2023-12-21T03:36:21.826Z,74.27
2023-12-21T03:38:49.049Z,74.05
2023-12-21T03:41:15.937Z,74.08
2023-12-21T03:43:42.972Z,74.24
2023-12-21T03:46:10.912Z,74.34
2023-12-21T03:48:37.898Z,74.21
2023-12-21T03:51:05.389Z,74.18
2023-12-21T03:53:32.582Z,74.20
2023-12-21T03:55:59.435Z,74.22
2023-12-21T03:58:26.371Z,74.07
2023-12-21T04:00:53.614Z,74.01
2023-12-21T04:03:20.706Z,74.12
2023-12-21T04:05:47.606Z,74.15
2023-12-21T04:08:16.306Z,74.19
2023-12-21T04:10:43.335Z,74.44
2023-12-21T04:13:10.288Z,74.38
2023-12-21T04:15:37.636Z,74.18
2023-12-21T04:18:04.714Z,74.33
2023-12-21T04:20:31.657Z,74.28
2023-12-21T04:22:58.532Z,74.29
2023-12-21T04:25:25.490Z,74.25
2023-12-21T04:27:53.615Z,74.25
2023-12-21T04:30:20.675Z,74.06
2023-12-21T04:32:48.243Z,74.11
2023-12-21T04:35:15.404Z,74.18
2023-12-21T04:37:42.409Z,74.00
2023-12-21T04:40:10.455Z,74.05
2023-12-21T04:42:37.468Z,73.66
2023-12-21T04:45:04.601Z,73.80
2023-12-21T04:47:31.574Z,73.89
2023-12-21T04:49:58.562Z,73.60
2023-12-21T04:52:25.784Z,73.96
2023-12-21T04:54:55.757Z,73.70
2023-12-21T04:57:24.373Z,73.61
2023-12-21T04:59:51.845Z,73.59
2023-12-21T05:02:19.295Z,73.49
2023-12-21T05:04:46.256Z,73.49
2023-12-21T05:07:13.302Z,73.17
2023-12-21T05:09:40.335Z,72.99
2023-12-21T05:12:07.401Z,72.89
2023-12-21T05:14:34.374Z,72.91
2023-12-21T05:17:01.363Z,73.00
2023-12-21T05:19:28.229Z,73.12
2023-12-21T05:21:55.199Z,73.75
2023-12-21T05:24:22.051Z,73.52
2023-12-21T05:26:48.911Z,73.91
2023-12-21T05:29:16.006Z,74.12
2023-12-21T05:31:44.247Z,74.63
2023-12-21T05:34:11.419Z,75.03
2023-12-21T05:36:38.439Z,75.53
2023-12-21T05:39:17.317Z,75.78
2023-12-21T05:44:29.700Z,77.11
2023-12-21T05:46:56.660Z,77.21
2023-12-21T05:49:24.454Z,77.65
2023-12-21T05:51:51.318Z,77.69
2023-12-21T05:54:18.232Z,78.05
2023-12-21T05:56:45.227Z,78.20
2023-12-21T05:59:12.581Z,78.14
2023-12-21T06:01:40.524Z,78.13
2023-12-21T06:04:07.522Z,77.94
2023-12-21T06:06:34.571Z,77.98
2023-12-21T06:09:01.477Z,77.89
2023-12-21T06:11:29.793Z,77.89
2023-12-21T06:13:56.872Z,77.63
2023-12-21T06:16:23.773Z,77.60
2023-12-21T06:18:51.790Z,77.28
2023-12-21T06:21:18.764Z,77.36
2023-12-21T06:23:45.699Z,77.12
2023-12-21T06:26:12.582Z,77.46
2023-12-21T06:28:39.613Z,77.79
2023-12-21T06:31:06.978Z,77.95
2023-12-21T06:33:34.097Z,78.14
2023-12-21T06:36:01.178Z,78.41
2023-12-21T06:38:28.133Z,78.63
2023-12-21T06:40:55.013Z,79.08
2023-12-21T06:43:23.798Z,79.51
2023-12-21T06:45:51.005Z,79.69
2023-12-21T06:48:18.049Z,79.77
2023-12-21T06:50:45.665Z,79.83
2023-12-21T06:53:16.756Z,79.91
2023-12-21T06:55:44.282Z,80.20
2023-12-21T06:58:11.810Z,80.20
2023-12-21T07:00:39.022Z,80.47
2023-12-21T07:03:06.009Z,80.53
2023-12-21T07:05:32.918Z,80.54
2023-12-21T07:07:59.927Z,80.56
2023-12-21T07:10:26.862Z,80.49
2023-12-21T07:12:53.900Z,80.65
2023-12-21T07:15:20.784Z,80.38
2023-12-21T07:17:47.630Z,80.60
2023-12-21T07:20:14.600Z,80.85
2023-12-21T07:22:41.515Z,81.22
2023-12-21T07:25:09.096Z,81.37
2023-12-21T07:27:36.057Z,81.26
2023-12-21T07:30:03.249Z,81.40
2023-12-21T07:32:30.483Z,81.85
2023-12-21T07:34:58.152Z,81.71
2023-12-21T07:37:25.045Z,81.76
2023-12-21T07:39:51.980Z,81.93
2023-12-21T07:42:18.989Z,82.44
2023-12-21T07:44:46.463Z,83.05
2023-12-21T07:47:13.321Z,83.10
2023-12-21T07:49:40.206Z,83.20
2023-12-21T07:52:08.472Z,83.19
2023-12-21T07:54:35.523Z,83.57
2023-12-21T07:57:02.423Z,83.72
2023-12-21T07:59:29.525Z,83.80
2023-12-21T08:01:56.453Z,83.72
2023-12-21T08:04:23.488Z,83.51
2023-12-21T08:06:50.382Z,83.73
2023-12-21T08:09:17.182Z,83.74
2023-12-21T08:11:44.077Z,83.68
2023-12-21T08:14:10.926Z,83.45
2023-12-21T08:16:38.283Z,83.65
2023-12-21T08:19:05.365Z,83.71
2023-12-21T08:21:32.363Z,83.47
2023-12-21T08:24:14.951Z,83.44
2023-12-21T08:26:42.088Z,83.48
2023-12-21T08:29:08.975Z,83.71
2023-12-21T08:31:35.993Z,83.81
2023-12-21T08:34:03.673Z,83.87
2023-12-21T08:36:30.949Z,83.89
2023-12-21T08:38:58.404Z,83.83
2023-12-21T08:41:27.083Z,83.60
2023-12-21T08:43:56.279Z,83.66
2023-12-21T08:46:23.219Z,83.71
2023-12-21T08:48:50.132Z,83.53
2023-12-21T08:51:19.694Z,83.10
2023-12-21T08:53:47.099Z,83.45
2023-12-21T08:56:14.697Z,82.48
2023-12-21T08:58:41.904Z,82.91
2023-12-21T09:01:10.412Z,83.02
2023-12-21T09:03:37.349Z,82.44
2023-12-21T09:06:04.532Z,82.12
2023-12-21T09:08:31.554Z,81.44
2023-12-21T09:10:58.492Z,80.66
2023-12-21T09:13:25.391Z,80.29
2023-12-21T09:15:52.312Z,79.67
2023-12-21T09:18:19.997Z,79.50
2023-12-21T09:20:47.087Z,78.66
2023-12-21T09:23:14.377Z,78.77
2023-12-21T09:25:41.411Z,78.54
2023-12-21T09:28:08.397Z,78.48
2023-12-21T09:30:35.661Z,78.16
2023-12-21T09:33:02.650Z,77.63
2023-12-21T09:35:30.062Z,77.36
2023-12-21T09:37:57.026Z,77.06
2023-12-21T09:40:26.544Z,76.41
2023-12-21T09:43:04.907Z,75.73
2023-12-21T09:45:38.118Z,75.87
2023-12-21T09:48:06.530Z,75.80
2023-12-21T09:50:33.596Z,75.12
2023-12-21T09:53:01.955Z,74.79
2023-12-21T09:55:32.602Z,75.01
2023-12-21T09:58:01.326Z,74.45
2023-12-21T10:00:30.573Z,74.64
2023-12-21T10:02:57.487Z,74.43
2023-12-21T10:05:24.499Z,74.35
2023-12-21T10:07:51.409Z,73.70
2023-12-21T10:10:19.691Z,73.63
2023-12-21T10:12:46.839Z,72.71
2023-12-21T10:15:14.554Z,72.75
2023-12-21T10:17:41.858Z,72.50
2023-12-21T10:20:13.345Z,72.33
2023-12-21T10:22:41.619Z,72.63
2023-12-21T10:25:09.601Z,72.65
2023-12-21T10:27:37.565Z,72.08
2023-12-21T10:30:05.942Z,72.30
2023-12-21T10:32:33.496Z,72.36
2023-12-21T10:35:01.226Z,72.52
2023-12-21T10:37:29.336Z,72.47
2023-12-21T10:39:58.151Z,72.09
2023-12-21T10:42:25.603Z,71.68
2023-12-21T10:44:52.692Z,71.83
2023-12-21T10:47:22.461Z,71.69
2023-12-21T10:49:52.272Z,71.96
2023-12-21T10:52:20.685Z,71.95
2023-12-21T10:54:48.073Z,71.77
2023-12-21T10:57:16.574Z,71.90
2023-12-21T10:59:44.894Z,71.37
2023-12-21T11:02:15.288Z,71.64
2023-12-21T11:04:45.447Z,71.30
2023-12-21T11:07:15.480Z,71.53
2023-12-21T11:09:43.512Z,71.50
2023-12-21T11:12:10.426Z,71.33
2023-12-21T11:14:38.155Z,71.74
2023-12-21T11:17:11.590Z,71.90
2023-12-21T11:19:40.914Z,72.33
2023-12-21T11:22:08.214Z,72.23
2023-12-21T11:24:35.673Z,72.58
2023-12-21T11:27:03.407Z,72.95
2023-12-21T11:29:30.724Z,73.38
2023-12-21T11:31:58.389Z,73.86
2023-12-21T11:34:41.319Z,73.87
2023-12-21T11:37:25.912Z,74.57
2023-12-21T11:39:54.609Z,75.18
2023-12-21T11:42:22.766Z,75.99
2023-12-21T11:44:53.535Z,76.92
2023-12-21T11:47:21.610Z,76.97
2023-12-21T11:49:48.843Z,77.01
2023-12-21T11:52:25.055Z,77.48
2023-12-21T11:54:52.145Z,77.83
2023-12-21T11:57:19.139Z,77.96
2023-12-21T11:59:46.225Z,78.70
2023-12-21T12:02:15.959Z,78.65
2023-12-21T12:04:49.294Z,78.47
2023-12-21T12:07:19.434Z,78.63
2023-12-21T12:09:47.111Z,78.76
2023-12-21T12:12:14.082Z,79.19
2023-12-21T12:14:40.940Z,79.18
2023-12-21T12:17:07.789Z,79.34
2023-12-21T12:19:38.450Z,79.81
2023-12-21T12:22:05.580Z,79.77
2023-12-21T12:24:32.668Z,80.04
2023-12-21T12:26:59.948Z,80.18
2023-12-21T12:29:30.765Z,80.38
2023-12-21T12:31:57.902Z,80.95
2023-12-21T12:34:24.949Z,81.09
2023-12-21T12:36:56.104Z,81.27
2023-12-21T12:39:23.595Z,81.51
2023-12-21T12:41:55.970Z,81.78
2023-12-21T12:44:25.588Z,81.89
2023-12-21T12:46:52.794Z,81.89
2023-12-21T12:49:19.930Z,82.07
2023-12-21T12:51:46.825Z,81.92
2023-12-21T12:54:14.257Z,82.05
2023-12-21T12:56:50.003Z,81.73
2023-12-21T12:59:20.673Z,82.01
2023-12-21T13:01:47.816Z,81.79
2023-12-21T13:04:15.361Z,81.89
2023-12-21T13:06:42.437Z,82.23
2023-12-21T13:09:09.533Z,82.15
2023-12-21T13:11:36.483Z,82.39
2023-12-21T13:14:05.524Z,82.17
2023-12-21T13:16:32.479Z,82.17
2023-12-21T13:18:59.418Z,82.49
2023-12-21T13:21:26.371Z,82.63
2023-12-21T13:23:53.279Z,82.75
2023-12-21T13:26:20.627Z,82.65
2023-12-21T13:28:48.330Z,83.19
2023-12-21T13:31:15.631Z,83.09
2023-12-21T13:33:42.981Z,83.04
2023-12-21T13:36:10.040Z,82.77
2023-12-21T13:38:39.147Z,82.90
2023-12-21T13:41:09.858Z,83.05
2023-12-21T13:43:38.295Z,83.09
2023-12-21T13:46:05.916Z,83.30
2023-12-21T13:48:33.044Z,83.46
2023-12-21T13:51:00.634Z,83.31
2023-12-21T13:53:27.500Z,83.29
2023-12-21T13:55:54.588Z,83.25
2023-12-21T13:58:21.932Z,83.59
2023-12-21T14:00:49.550Z,83.58
2023-12-21T14:03:17.697Z,83.56
2023-12-21T14:05:44.649Z,83.46
2023-12-21T14:08:11.655Z,83.74
2023-12-21T14:10:38.714Z,83.36
2023-12-21T14:13:05.627Z,83.46
2023-12-21T14:15:32.573Z,83.46
2023-12-21T14:17:59.486Z,83.72
2023-12-21T14:20:26.671Z,83.73
2023-12-21T14:22:53.781Z,84.00
2023-12-21T14:25:20.896Z,84.19
2023-12-21T14:27:49.099Z,84.04
2023-12-21T14:30:16.072Z,84.01
2023-12-21T14:32:44.199Z,84.32
2023-12-21T14:35:11.490Z,84.62
2023-12-21T14:37:38.524Z,84.78
2023-12-21T14:40:06.190Z,84.81
2023-12-21T14:42:33.064Z,84.82
2023-12-21T14:44:59.976Z,84.87
2023-12-21T14:47:31.290Z,84.94
2023-12-21T14:49:58.349Z,85.25
2023-12-21T14:52:26.109Z,85.09
2023-12-21T14:54:52.974Z,85.20
2023-12-21T14:57:19.781Z,85.13
2023-12-21T14:59:46.698Z,85.19
2023-12-21T15:02:13.703Z,85.19
2023-12-21T15:04:40.610Z,85.33
2023-12-21T15:07:08.478Z,85.46
2023-12-21T15:09:37.506Z,85.42
2023-12-21T15:12:05.108Z,85.41
2023-12-21T15:14:32.636Z,85.37
2023-12-21T15:17:00.647Z,85.36
2023-12-21T15:19:32.701Z,85.45
2023-12-21T15:22:01.013Z,85.20
2023-12-21T15:24:28.149Z,84.96
2023-12-21T15:26:55.292Z,84.89
2023-12-21T15:29:22.367Z,84.92
2023-12-21T15:31:49.500Z,85.11
2023-12-21T15:34:16.645Z,84.91
2023-12-21T15:36:43.676Z,84.92
2023-12-21T15:39:10.803Z,84.68
2023-12-21T15:41:37.696Z,84.89
2023-12-21T15:44:04.736Z,84.79
2023-12-21T15:46:33.660Z,84.92
2023-12-21T15:49:01.959Z,84.51
2023-12-21T15:51:28.862Z,84.77
2023-12-21T15:53:55.687Z,84.71
2023-12-21T15:56:23.440Z,84.38
2023-12-21T15:58:50.325Z,83.97
2023-12-21T16:01:20.586Z,84.21
2023-12-21T16:03:47.980Z,84.30
2023-12-21T16:06:15.102Z,84.14
2023-12-21T16:08:42.193Z,83.82
2023-12-21T16:11:11.333Z,84.37
2023-12-21T16:13:38.747Z,83.93
2023-12-21T16:16:06.102Z,83.89
2023-12-21T16:18:33.122Z,84.19
2023-12-21T16:21:01.536Z,83.97
2023-12-21T16:23:28.405Z,83.61
2023-12-21T16:25:55.707Z,83.72
2023-12-21T16:28:22.965Z,83.48
2023-12-21T16:30:49.862Z,83.52
2023-12-21T16:33:19.927Z,82.98
2023-12-21T16:35:47.133Z,82.44
2023-12-21T16:38:16.050Z,83.13
2023-12-21T16:40:43.005Z,82.94
2023-12-21T16:43:09.966Z,82.67
2023-12-21T16:45:37.169Z,82.95
2023-12-21T16:48:04.316Z,82.96
2023-12-21T16:50:31.353Z,82.46
2023-12-21T16:52:58.435Z,82.77
2023-12-21T16:55:25.710Z,82.95
2023-12-21T16:57:52.705Z,82.93
2023-12-21T17:00:45.498Z,82.78
2023-12-21T17:03:22.356Z,82.84
2023-12-21T17:05:49.328Z,82.83
2023-12-21T17:08:16.245Z,82.67
2023-12-21T17:10:43.993Z,82.64
2023-12-21T17:13:10.912Z,82.40
2023-12-21T17:15:37.891Z,82.67
2023-12-21T17:18:05.106Z,82.55
2023-12-21T17:20:34.337Z,82.83
2023-12-21T17:23:03.196Z,82.63
2023-12-21T17:25:30.434Z,82.49
2023-12-21T17:27:57.759Z,82.61
2023-12-21T17:30:26.433Z,82.74
2023-12-21T17:32:53.569Z,83.14
2023-12-21T17:35:20.731Z,83.11
2023-12-21T17:37:49.211Z,83.28
2023-12-21T17:40:16.946Z,83.63
2023-12-21T17:42:44.416Z,83.20
2023-12-21T17:45:12.028Z,83.39
2023-12-21T17:47:39.387Z,83.29
2023-12-21T17:50:07.316Z,83.27
2023-12-21T17:52:34.370Z,83.63
2023-12-21T17:55:01.559Z,83.85
2023-12-21T17:57:28.736Z,84.03
2023-12-21T17:59:56.442Z,83.87
2023-12-21T18:02:23.444Z,84.12
2023-12-21T18:04:54.506Z,84.47
2023-12-21T18:07:25.426Z,84.32
2023-12-21T18:09:54.541Z,84.29
2023-12-21T18:12:22.119Z,84.22
2023-12-21T18:14:49.167Z,84.65
2023-12-21T18:17:16.068Z,84.99
2023-12-21T18:19:44.173Z,84.87
2023-12-21T18:22:15.073Z,84.92
2023-12-21T18:24:45.906Z,85.23
2023-12-21T18:27:13.655Z,85.26
2023-12-21T18:29:41.151Z,85.20
2023-12-21T18:32:08.066Z,85.33
2023-12-21T18:34:35.340Z,85.27
2023-12-21T18:37:02.289Z,85.31
2023-12-21T18:39:29.154Z,85.45
2023-12-21T18:41:56.656Z,85.69
2023-12-21T18:44:23.499Z,84.81
2023-12-21T18:46:53.466Z,85.16
2023-12-21T18:49:20.983Z,85.20
2023-12-21T18:51:48.291Z,85.31
2023-12-21T18:54:15.235Z,85.16
2023-12-21T18:56:42.141Z,84.83
2023-12-21T18:59:09.137Z,84.92
2023-12-21T19:01:36.130Z,84.79
2023-12-21T19:04:03.271Z,84.59
2023-12-21T19:06:30.527Z,84.81
2023-12-21T19:08:58.643Z,84.50
2023-12-21T19:11:26.921Z,84.62
2023-12-21T19:13:53.938Z,84.49
2023-12-21T19:16:20.983Z,83.78
2023-12-21T19:18:49.583Z,83.32
2023-12-21T19:21:17.348Z,83.60
2023-12-21T19:23:44.988Z,83.10
2023-12-21T19:26:12.545Z,83.27
2023-12-21T19:28:41.871Z,82.97
2023-12-21T19:31:10.171Z,83.14
2023-12-21T19:33:37.629Z,82.61
2023-12-21T19:36:06.525Z,82.18
2023-12-21T19:38:33.710Z,82.14
2023-12-21T19:41:02.315Z,81.73
2023-12-21T19:43:29.451Z,82.07
2023-12-21T19:46:01.053Z,81.82
2023-12-21T19:48:28.085Z,82.24
2023-12-21T19:50:55.430Z,82.18
2023-12-21T19:53:24.997Z,82.17
2023-12-21T19:55:52.748Z,81.67
2023-12-21T19:58:19.998Z,81.41
2023-12-21T20:00:47.639Z,81.95
2023-12-21T20:03:15.396Z,82.04
2023-12-21T20:05:42.854Z,81.97
2023-12-21T20:08:10.726Z,82.07
2023-12-21T20:10:41.259Z,82.27
2023-12-21T20:13:09.731Z,81.97
2023-12-21T20:15:38.994Z,81.92
2023-12-21T20:18:06.354Z,81.65
2023-12-21T20:20:34.146Z,81.92
2023-12-21T20:23:01.732Z,81.89
2023-12-21T20:25:28.744Z,81.94
2023-12-21T20:27:56.710Z,81.77
2023-12-21T20:30:25.136Z,82.31
2023-12-21T20:32:52.412Z,82.49
2023-12-21T20:35:19.857Z,83.25
2023-12-21T20:37:47.781Z,83.25
2023-12-21T20:40:18.365Z,83.69
2023-12-21T20:42:47.386Z,84.39
2023-12-21T20:45:14.944Z,84.33
2023-12-21T20:47:49.372Z,84.92
2023-12-21T20:50:18.825Z,84.94
2023-12-21T20:52:46.228Z,84.98
2023-12-21T20:55:16.551Z,85.19
2023-12-21T20:57:44.577Z,84.97
2023-12-21T21:00:12.399Z,84.76
2023-12-21T21:02:40.042Z,85.02
2023-12-21T21:05:07.546Z,84.73
2023-12-21T21:07:35.414Z,84.87
2023-12-21T21:10:02.334Z,85.00
2023-12-21T21:12:29.178Z,85.17
2023-12-21T21:14:56.333Z,85.28
2023-12-21T21:17:25.545Z,85.34
2023-12-21T21:19:53.656Z,85.44
2023-12-21T21:22:20.703Z,85.02
2023-12-21T21:24:47.872Z,85.13
2023-12-21T21:27:14.684Z,85.25
2023-12-21T21:29:41.663Z,85.26
2023-12-21T21:32:08.901Z,85.09
2023-12-21T21:34:37.708Z,84.96
2023-12-21T21:37:04.800Z,84.77
2023-12-21T21:39:33.720Z,84.91
2023-12-21T21:42:01.357Z,85.06
2023-12-21T21:44:31.184Z,85.30
2023-12-21T21:47:00.694Z,85.00
2023-12-21T21:49:27.777Z,84.83
2023-12-21T21:51:54.836Z,85.01
2023-12-21T21:54:22.966Z,84.97
2023-12-21T21:56:49.972Z,84.54
2023-12-21T21:59:16.914Z,84.36
2023-12-21T22:01:46.931Z,84.21
2023-12-21T22:04:16.976Z,83.93
2023-12-21T22:06:44.111Z,83.89
2023-12-21T22:09:26.741Z,82.34
2023-12-21T22:11:53.593Z,81.37
2023-12-21T22:14:20.428Z,80.79
2023-12-21T22:16:49.654Z,80.51
2023-12-21T22:19:17.607Z,79.04
2023-12-21T22:21:44.816Z,78.49
2023-12-21T22:24:11.754Z,77.92
2023-12-21T22:26:38.586Z,78.31
2023-12-21T22:29:05.467Z,77.80
2023-12-21T22:31:32.426Z,77.70
2023-12-21T22:33:59.393Z,76.61
2023-12-21T22:36:26.258Z,75.68
2023-12-21T22:38:53.341Z,75.71
2023-12-21T22:41:20.918Z,75.39
2023-12-21T22:43:47.818Z,74.75
2023-12-21T22:46:14.914Z,74.31
2023-12-21T22:48:43.581Z,74.35
2023-12-21T22:51:10.928Z,74.23
2023-12-21T22:53:37.829Z,74.50
2023-12-21T22:56:04.883Z,74.89
2023-12-21T22:58:32.060Z,75.51
2023-12-21T23:00:58.959Z,75.77
2023-12-21T23:03:25.953Z,76.60
2023-12-21T23:05:53.116Z,77.08
2023-12-21T23:08:20.049Z,77.31
2023-12-21T23:10:47.010Z,77.67
2023-12-21T23:13:18.938Z,77.58
2023-12-21T23:15:46.461Z,77.68
2023-12-21T23:18:14.012Z,77.75
2023-12-21T23:20:41.070Z,77.50
2023-12-21T23:23:08.161Z,77.15
2023-12-21T23:25:35.136Z,76.99
2023-12-21T23:28:01.991Z,75.58
2023-12-21T23:30:28.896Z,75.29
2023-12-21T23:32:55.860Z,75.25
2023-12-21T23:35:23.828Z,73.86
2023-12-21T23:37:51.473Z,73.54
2023-12-21T23:40:18.961Z,73.36
2023-12-21T23:42:46.345Z,72.93
2023-12-21T23:45:13.575Z,73.04
2023-12-21T23:47:40.697Z,72.71
2023-12-21T23:50:08.455Z,72.80
2023-12-21T23:52:35.511Z,72.93
2023-12-21T23:55:02.776Z,72.67
2023-12-21T23:57:29.660Z,72.64
2023-12-21T23:59:56.551Z,72.98
